Observations for SYDNEY INTL AIRPORT, Australia (YSSY)

YSSY 200630Z 07010KT 9999 FEW020 SCT250 23/19 Q1023 NOSIG   
YSSY 200600Z 09010KT 9999 FEW030 SCT250 24/18 Q1023 NOSIG   
YSSY 200530Z 08009KT 9999 FEW030 SCT250 24/18 Q1023 NOSIG   
YSSY 200500Z 10009KT 9999 FEW030 SCT250 24/18 Q1024 NOSIG   
YSSY 200430Z 08009KT 9999 FEW030 SCT250 25/18 Q1024 NOSIG   
YSSY 200400Z 08010KT 9999 FEW030 SCT250 25/18 Q1024 NOSIG   
YSSY 200330Z 09009KT 9999 FEW027 SCT250 25/18 Q1024 FM0330 08010KT 9999 SCT025  
YSSY 200300Z 14009KT 9999 SCT024 24/19 Q1024 FM0330 08010KT 9999 SCT025 
YSSY 200230Z 15008KT 9999 SCT024 24/19 Q1025 FM0300 08010KT 9999 SCT025 
YSSY 200200Z 12006KT 9999 FEW030 SCT050 24/18 Q1025 FM0230 06010KT 9999 SCT025  
YSSY 200130Z 14007KT 9999 FEW025 SCT050 23/18 Q1026 FM0200 06010KT 9999 SCT025  
YSSY 200100Z 14006KT 9999 BKN020 22/18 Q1026 FM0200 06010KT 9999 SCT025 
YSSY 200030Z 12005KT 070V160 9999 SCT020 22/18 Q1026 NOSIG  
YSSY 200000Z 23005KT 210V270 9999 FEW030 22/17 Q1026 NOSIG  
YSSY 192330Z 29005KT 260V320 9999 FEW025 21/17 Q1026 NOSIG  
YSSY 192300Z 30004KT 9999 FEW025 22/17 Q1027 NOSIG  
YSSY 192230Z 31004KT 9999 FEW020 20/16 Q1027 NOSIG  
YSSY 192200Z 30003KT 9999 FEW020 20/16 Q1027 NOSIG  
YSSY 192130Z 29005KT 9999 FEW020 18/16 Q1026 NOSIG  
YSSY 192100Z 31006KT 9999 FEW020 18/16 Q1026 NOSIG  
YSSY 192030Z 34003KT 9999 FEW020 17/16 Q1026 NOSIG  
YSSY 192000Z 33005KT 9999 FEW020 SCT040 17/15 Q1026 NOSIG   
YSSY 191930Z 35006KT 9999 FEW020 BKN025 17/16 Q1026 FM2030 32005KT 4000 BR FM2200 32005KT 9999 FEW025   
YSSY 191900Z 31005KT 9999 FEW025 17/16 Q1025 FM20900 30005KT 4000 BR FM2030 30005KT 0400 FG SCT003  
YSSY 191900Z 31005KT 9999 FEW025 17/16 Q1025 FM2000 30005KT 4000 BR FM2030 30005KT 0400 FG SCT003
YSSY 191830Z 32004KT 9999 BKN025 17/16 Q1025
YSSY 191800Z 31003KT 9999 FEW030 18/16 Q1025 FM1900 30005KT 4000 BR FM1930 30005KT 0400 FG SCT001   
YSSY 191730Z 34004KT CAVOK 18/16 Q1025 FM1830 28008KT 4000 BR FM1900 28008KT 0400 FG SCT001 
YSSY 191700Z 35004KT CAVOK 18/17 Q1025 FM1800 28008KT 4000 BR FM1900 28008KT 0400 FG SCT001 
YSSY 191630Z 35005KT CAVOK 18/16 Q1025 FM1800 28008KT 4000 BR FM1900 28008KT 0400 FG SCT001 
YSSY 191600Z 33005KT CAVOK 18/17 Q1026 FM1730 28008KT 4000 BR FM1830 28008KT 0400 FG SCT001 
YSSY 191530Z 34005KT CAVOK 19/17 Q1026 FM1730 28008KT 4000 BR   
YSSY 191500Z 36004KT CAVOK 19/17 Q1026 FM1730 28008KT 4000 BR   
YSSY 191430Z 35001KT CAVOK 19/17 Q1026 NOSIG
YSSY 191400Z 30004KT CAVOK 19/17 Q1026 NOSIG
YSSY 191330Z 30005KT CAVOK 20/18 Q1026 NOSIG
YSSY 191300Z 25006KT CAVOK 20/17 Q1027 NOSIG
YSSY 191230Z 00000KT CAVOK 20/17 Q1027 NOSIG
YSSY 191200Z 00000KT CAVOK 20/17 Q1027 NOSIG
YSSY 191130Z 00000KT CAVOK 21/17 Q1027 NOSIG
YSSY 191100Z 01002KT CAVOK 21/18 Q1027 NOSIG
YSSY 191030Z 36004KT CAVOK 21/18 Q1026 NOSIG
YSSY 191000Z 36004KT CAVOK 21/17 Q1026 NOSIG
YSSY 190930Z 04004KT CAVOK 21/18 Q1026 NOSIG
YSSY 190900Z 05004KT CAVOK 21/17 Q1026 NOSIG
YSSY 190830Z 06005KT CAVOK 21/18 Q1026 NOSIG
YSSY 190800Z 06006KT 9999 FEW030 21/18 Q1026 NOSIG  
YSSY 190730Z 07008KT 9999 FEW030 21/17 Q1025 NOSIG  
YSSY 190700Z 08007KT 9999 FEW030 22/17 Q1025 NOSIG  
YSSY 190630Z 08008KT 9999 FEW030 23/16 Q1025 NOSIG  
YSSY 190600Z 12007KT 9999 FEW030 23/17 Q1025 NOSIG